createdAt,value
2022-08-03T00:00:36.278Z,1.20
2022-08-03T00:03:04.653Z,1.27
2022-08-03T00:05:34.009Z,1.30
2022-08-03T00:08:02.501Z,1.40
2022-08-03T00:10:32.213Z,1.55
2022-08-03T00:13:00.498Z,1.75
2022-08-03T00:15:28.848Z,1.42
2022-08-03T00:17:57.196Z,1.70
2022-08-03T00:20:25.815Z,1.80
2022-08-03T00:22:54.213Z,1.58
2022-08-03T00:25:22.635Z,1.63
2022-08-03T00:27:52.424Z,1.85
2022-08-03T00:30:20.821Z,2.15
2022-08-03T00:32:49.607Z,1.48
2022-08-03T00:35:36.758Z,1.52
2022-08-03T00:38:05.652Z,1.60
2022-08-03T00:40:34.472Z,1.52
2022-08-03T00:43:08.219Z,1.48
2022-08-03T00:45:41.326Z,1.40
2022-08-03T00:48:19.803Z,1.30
2022-08-03T00:51:00.612Z,1.20
2022-08-03T00:53:29.435Z,1.20
2022-08-03T00:55:57.774Z,1.30
2022-08-03T00:58:27.512Z,1.60
2022-08-03T01:00:55.903Z,1.30
2022-08-03T01:03:24.296Z,1.33
2022-08-03T01:06:00.645Z,1.40
2022-08-03T01:08:38.660Z,1.40
2022-08-03T01:11:13.741Z,1.63
2022-08-03T01:14:03.863Z,1.48
2022-08-03T01:16:50.848Z,1.25
2022-08-03T01:19:37.740Z,1.38
2022-08-03T01:22:38.683Z,1.45
2022-08-03T01:25:16.472Z,1.30
2022-08-03T01:27:58.479Z,1.67
2022-08-03T01:30:33.392Z,1.30
2022-08-03T01:33:06.040Z,1.38
2022-08-03T01:35:40.238Z,1.30
2022-08-03T01:38:13.503Z,1.50
2022-08-03T01:40:44.556Z,1.50
2022-08-03T01:46:07.070Z,1.40
2022-08-03T01:48:37.722Z,1.42
2022-08-03T01:51:07.350Z,1.17
2022-08-03T01:53:36.388Z,1.40
2022-08-03T01:56:07.110Z,1.48
2022-08-03T01:58:37.872Z,1.67
2022-08-03T02:01:08.150Z,1.40
2022-08-03T02:04:00.102Z,1.52
2022-08-03T02:07:00.464Z,1.38
2022-08-03T02:11:52.392Z,1.65
2022-08-03T02:14:22.521Z,1.95
2022-08-03T02:16:52.854Z,1.80
2022-08-03T02:19:21.507Z,1.55
2022-08-03T02:21:56.374Z,1.38
2022-08-03T02:24:30.801Z,1.50
2022-08-03T02:27:01.357Z,1.75
2022-08-03T02:29:39.801Z,1.55
2022-08-03T02:32:15.809Z,1.45
2022-08-03T02:34:48.736Z,1.92
2022-08-03T02:37:21.084Z,1.85
2022-08-03T02:39:53.418Z,1.20
2022-08-03T02:42:24.571Z,1.70
2022-08-03T02:44:57.631Z,1.60
2022-08-03T02:47:53.255Z,1.70
2022-08-03T02:50:20.138Z,1.70
2022-08-03T02:52:50.113Z,1.58
2022-08-03T02:55:19.385Z,1.80
2022-08-03T02:57:49.236Z,1.75
2022-08-03T03:00:27.290Z,1.50
2022-08-03T03:03:00.474Z,1.50
2022-08-03T03:05:54.594Z,1.50
2022-08-03T03:08:28.350Z,1.33
2022-08-03T03:10:59.808Z,1.60
2022-08-03T03:13:29.762Z,1.88
2022-08-03T03:16:01.793Z,1.52
2022-08-03T03:18:33.581Z,1.30
2022-08-03T03:21:04.708Z,1.40
2022-08-03T03:26:03.112Z,1.80
2022-08-03T03:28:33.090Z,2.00
2022-08-03T03:31:02.720Z,1.70
2022-08-03T03:33:32.429Z,1.58
2022-08-03T03:36:01.108Z,2.05
2022-08-03T03:38:29.821Z,2.10
2022-08-03T03:40:58.278Z,1.92
2022-08-03T03:43:26.890Z,2.15
2022-08-03T03:45:56.959Z,1.80
2022-08-03T03:48:26.401Z,2.03
2022-08-03T03:50:57.289Z,2.22
2022-08-03T03:53:26.012Z,2.38
2022-08-03T03:55:59.774Z,1.90
2022-08-03T03:58:32.977Z,1.60
2022-08-03T04:01:01.844Z,2.07
2022-08-03T04:03:30.579Z,1.60
2022-08-03T04:06:17.713Z,1.58
2022-08-03T04:09:04.081Z,1.80
2022-08-03T04:11:40.128Z,1.90
2022-08-03T04:14:12.639Z,1.70
2022-08-03T04:16:45.665Z,1.73
2022-08-03T04:19:23.079Z,2.17
2022-08-03T04:21:57.668Z,1.70
2022-08-03T04:24:33.174Z,1.85
2022-08-03T04:27:04.395Z,2.47
2022-08-03T04:29:38.655Z,2.28
2022-08-03T04:32:16.879Z,2.30
2022-08-03T04:34:46.089Z,1.90
2022-08-03T04:37:26.907Z,3.47
2022-08-03T04:39:58.366Z,2.78
2022-08-03T04:42:28.102Z,2.30
2022-08-03T04:45:01.364Z,2.38
2022-08-03T04:47:32.298Z,2.58
2022-08-03T04:50:02.654Z,1.30
2022-08-03T04:52:32.646Z,1.60
2022-08-03T04:55:01.018Z,2.10
2022-08-03T04:57:29.452Z,1.88
2022-08-03T05:00:02.504Z,1.48
2022-08-03T05:02:32.876Z,2.00
2022-08-03T05:05:01.387Z,2.20
2022-08-03T05:07:36.582Z,1.40
2022-08-03T05:10:10.151Z,1.98
2022-08-03T05:12:46.481Z,1.65
2022-08-03T05:15:15.007Z,2.05
2022-08-03T05:17:43.340Z,1.80
2022-08-03T05:20:12.976Z,2.13
2022-08-03T05:22:42.664Z,1.88
2022-08-03T05:25:17.328Z,2.10
2022-08-03T05:27:48.220Z,1.60
2022-08-03T05:30:31.160Z,1.73
2022-08-03T05:33:03.700Z,2.05
2022-08-03T05:35:56.847Z,1.80
2022-08-03T05:38:28.826Z,2.22
2022-08-03T05:41:22.813Z,1.63
2022-08-03T05:43:51.379Z,2.60
2022-08-03T05:46:20.304Z,2.35
2022-08-03T05:48:48.625Z,2.40
2022-08-03T05:51:16.988Z,2.67
2022-08-03T05:53:46.917Z,3.05
2022-08-03T05:56:16.540Z,2.80
2022-08-03T05:58:47.135Z,2.15
2022-08-03T06:01:16.143Z,2.45
2022-08-03T06:03:44.530Z,2.35
2022-08-03T06:06:12.947Z,2.30
2022-08-03T06:08:42.576Z,2.25
2022-08-03T06:11:12.683Z,2.50
2022-08-03T06:13:41.253Z,2.20
2022-08-03T06:16:09.696Z,2.20
2022-08-03T06:18:38.817Z,2.05
2022-08-03T06:21:11.055Z,2.35
2022-08-03T06:23:53.179Z,2.63
2022-08-03T06:26:25.882Z,2.17
2022-08-03T06:28:54.971Z,2.10
2022-08-03T06:31:33.289Z,2.53
2022-08-03T06:34:32.323Z,2.15
2022-08-03T06:36:53.021Z,2.20
2022-08-03T06:39:23.444Z,1.83
2022-08-03T06:41:54.298Z,1.80
2022-08-03T06:44:22.672Z,1.85
2022-08-03T06:46:51.860Z,2.03
2022-08-03T06:49:20.279Z,1.73
2022-08-03T06:52:05.110Z,1.77
2022-08-03T06:54:36.884Z,2.00
2022-08-03T06:57:08.328Z,1.88
2022-08-03T07:00:07.598Z,1.90
2022-08-03T07:02:25.001Z,1.85
2022-08-03T07:04:57.148Z,1.50
2022-08-03T07:07:25.542Z,1.90
2022-08-03T07:09:57.635Z,1.77
2022-08-03T07:12:29.506Z,1.55
2022-08-03T07:15:02.308Z,1.73
2022-08-03T07:17:32.234Z,1.70
2022-08-03T07:20:02.252Z,1.73
2022-08-03T07:22:30.765Z,1.50
2022-08-03T07:24:59.319Z,1.70
2022-08-03T07:27:30.333Z,1.63
2022-08-03T07:29:59.902Z,1.70
2022-08-03T07:32:31.496Z,1.77
2022-08-03T07:35:01.204Z,1.70
2022-08-03T07:37:30.645Z,1.60
2022-08-03T07:39:59.300Z,1.95
2022-08-03T07:42:29.323Z,1.80
2022-08-03T07:44:58.860Z,1.63
2022-08-03T07:47:34.845Z,1.77
2022-08-03T07:50:08.585Z,1.80
2022-08-03T07:52:49.778Z,1.88
2022-08-03T07:55:19.981Z,1.65
2022-08-03T07:58:01.205Z,2.10
2022-08-03T08:00:29.735Z,1.70
2022-08-03T08:02:58.023Z,1.85
2022-08-03T08:05:26.735Z,1.73
2022-08-03T08:07:55.408Z,1.63
2022-08-03T08:10:24.422Z,1.70
2022-08-03T08:12:54.998Z,2.50
2022-08-03T08:15:23.329Z,1.80
2022-08-03T08:17:56.262Z,2.55
2022-08-03T08:20:31.372Z,2.53
2022-08-03T08:23:02.897Z,2.47
2022-08-03T08:25:33.949Z,2.33
2022-08-03T08:28:30.573Z,2.78
2022-08-03T08:30:52.791Z,3.78
2022-08-03T08:33:22.826Z,4.22
2022-08-03T08:35:54.283Z,13.90
2022-08-03T08:40:51.453Z,39.55
2022-08-03T08:43:21.061Z,27.73
2022-08-03T08:45:51.836Z,21.23
2022-08-03T08:48:24.296Z,9.40
2022-08-03T08:50:55.336Z,22.48
2022-08-03T08:53:27.186Z,6.93
2022-08-03T08:56:01.410Z,3.38
2022-08-03T08:58:37.180Z,4.28
2022-08-03T09:01:06.011Z,2.78
2022-08-03T09:03:35.250Z,3.70
2022-08-03T09:06:04.176Z,1.38
2022-08-03T09:08:33.953Z,3.67
2022-08-03T09:11:03.285Z,3.10
2022-08-03T09:13:34.219Z,1.75
2022-08-03T09:16:14.286Z,1.13
2022-08-03T09:18:43.341Z,4.88
2022-08-03T09:21:36.260Z,3.13
2022-08-03T09:24:16.374Z,3.40
2022-08-03T09:26:53.800Z,2.75
2022-08-03T09:29:24.412Z,2.08
2022-08-03T09:32:03.234Z,1.55
2022-08-03T09:34:32.050Z,1.48
2022-08-03T09:37:00.331Z,1.77
2022-08-03T09:39:41.508Z,1.95
2022-08-03T09:42:15.423Z,2.28
2022-08-03T09:44:47.331Z,1.27
2022-08-03T09:47:18.646Z,2.38
2022-08-03T09:50:02.229Z,3.17
2022-08-03T09:52:48.330Z,2.17
2022-08-03T09:56:31.634Z,3.83
2022-08-03T09:58:10.457Z,1.63
2022-08-03T10:00:57.076Z,1.55
2022-08-03T10:03:27.058Z,0.93
2022-08-03T10:05:59.791Z,0.80
2022-08-03T10:08:28.802Z,0.77
2022-08-03T10:10:58.760Z,0.88
2022-08-03T10:13:27.184Z,1.52
2022-08-03T10:16:23.118Z,1.60
2022-08-03T10:18:45.102Z,0.50
2022-08-03T10:21:20.134Z,0.50
2022-08-03T10:23:48.811Z,1.40
2022-08-03T10:26:23.967Z,1.13
2022-08-03T10:28:56.345Z,1.10
2022-08-03T10:31:27.672Z,1.75
2022-08-03T10:34:00.449Z,1.65
2022-08-03T10:36:32.086Z,1.23
2022-08-03T10:39:01.515Z,1.20
2022-08-03T10:41:37.424Z,4.18
2022-08-03T10:44:09.505Z,10.85
2022-08-03T10:46:44.979Z,2.22
2022-08-03T10:49:15.917Z,6.70
2022-08-03T10:51:46.544Z,10.15
2022-08-03T10:55:03.255Z,7.22
2022-08-03T10:57:47.474Z,3.08
2022-08-03T11:00:18.975Z,3.47
2022-08-03T11:03:10.241Z,3.03
2022-08-03T11:05:43.785Z,3.65
2022-08-03T11:08:30.371Z,3.33
2022-08-03T11:11:02.701Z,2.10
2022-08-03T11:13:33.885Z,1.10
2022-08-03T11:16:21.919Z,2.05
2022-08-03T11:19:00.918Z,1.38
2022-08-03T11:21:59.872Z,4.07
2022-08-03T11:25:00.174Z,3.85
2022-08-03T11:30:01.773Z,3.75
2022-08-03T11:32:59.750Z,5.03
2022-08-03T11:35:31.447Z,6.57
2022-08-03T11:38:08.442Z,4.95
2022-08-03T11:40:40.620Z,4.60
2022-08-03T11:43:10.518Z,12.45
2022-08-03T11:45:39.538Z,13.15
2022-08-03T11:48:17.187Z,6.22
2022-08-03T11:50:46.835Z,4.18
2022-08-03T11:53:18.173Z,23.50
2022-08-03T11:55:48.979Z,10.63
2022-08-03T11:58:58.107Z,19.88
2022-08-03T12:01:10.571Z,37.55
2022-08-03T12:03:38.899Z,38.42
2022-08-03T12:06:12.642Z,40.92
2022-08-03T12:08:42.854Z,40.92
2022-08-03T12:14:35.719Z,39.22
2022-08-03T12:16:32.019Z,40.85
2022-08-03T12:19:03.275Z,46.65
2022-08-03T12:21:33.164Z,52.65
2022-08-03T12:24:03.717Z,44.25
2022-08-03T12:26:45.407Z,54.95
2022-08-03T12:29:27.570Z,46.20
2022-08-03T12:31:56.441Z,73.93
2022-08-03T12:34:24.849Z,65.68
2022-08-03T12:37:01.033Z,66.68
2022-08-03T12:39:31.615Z,74.63
2022-08-03T12:42:00.014Z,78.57
2022-08-03T12:44:32.249Z,74.60
2022-08-03T12:47:01.789Z,63.17
2022-08-03T12:49:30.634Z,111.45
2022-08-03T12:52:05.507Z,106.28
2022-08-03T12:54:36.095Z,95.38
2022-08-03T12:57:06.741Z,79.50
2022-08-03T12:59:40.674Z,70.88
2022-08-03T13:02:17.767Z,94.35
2022-08-03T13:04:47.415Z,108.93
2022-08-03T13:07:19.523Z,95.10
2022-08-03T13:09:50.269Z,102.40
2022-08-03T13:12:21.158Z,104.60
2022-08-03T13:14:52.792Z,84.47
2022-08-03T13:17:21.674Z,100.68
2022-08-03T13:19:51.363Z,90.72
2022-08-03T13:22:23.290Z,103.37
2022-08-03T13:24:55.900Z,97.97
2022-08-03T13:28:04.796Z,84.80
2022-08-03T13:30:13.844Z,110.40
2022-08-03T13:32:49.325Z,100.60
2022-08-03T13:35:17.577Z,83.93
2022-08-03T13:37:48.857Z,73.10
2022-08-03T13:40:17.535Z,86.20
2022-08-03T13:42:46.109Z,101.70
2022-08-03T13:45:14.355Z,85.78
2022-08-03T13:47:42.642Z,92.70
2022-08-03T13:50:10.980Z,110.88
2022-08-03T13:52:39.362Z,82.15
2022-08-03T13:55:10.942Z,78.25
2022-08-03T13:58:11.927Z,112.60
2022-08-03T14:00:29.444Z,97.68
2022-08-03T14:03:15.349Z,111.72
2022-08-03T14:05:44.789Z,116.35
2022-08-03T14:08:13.652Z,128.57
2022-08-03T14:10:45.481Z,124.32
2022-08-03T14:13:17.753Z,123.70
2022-08-03T14:15:49.732Z,125.55
2022-08-03T14:18:27.844Z,109.88
2022-08-03T14:21:03.520Z,107.10
2022-08-03T14:23:34.484Z,116.22
2022-08-03T14:26:04.550Z,126.18
2022-08-03T14:28:32.992Z,118.90
2022-08-03T14:31:01.315Z,114.93
2022-08-03T14:33:29.677Z,101.88
2022-08-03T14:35:58.209Z,94.13
2022-08-03T14:38:26.782Z,87.95
2022-08-03T14:40:55.187Z,89.30
2022-08-03T14:43:25.044Z,94.03
2022-08-03T14:45:54.378Z,91.82
2022-08-03T14:50:29.739Z,83.88
2022-08-03T14:51:12.312Z,79.22
2022-08-03T14:53:41.663Z,68.53
2022-08-03T14:56:10.831Z,77.93
2022-08-03T14:58:40.839Z,74.38
2022-08-03T15:02:05.090Z,66.65
2022-08-03T15:03:57.586Z,57.55
2022-08-03T15:06:25.897Z,64.70
2022-08-03T15:11:42.983Z,62.67
2022-08-03T15:14:13.337Z,59.83
2022-08-03T15:16:43.331Z,63.97
2022-08-03T15:20:03.978Z,61.97
2022-08-03T15:22:00.984Z,61.60
2022-08-03T15:24:29.835Z,63.13
2022-08-03T15:26:58.241Z,61.88
2022-08-03T15:30:06.953Z,67.88
2022-08-03T15:32:16.761Z,65.45
2022-08-03T15:34:50.217Z,64.75
2022-08-03T15:37:20.803Z,63.00
2022-08-03T15:39:58.345Z,60.28
2022-08-03T15:42:30.229Z,59.70
2022-08-03T15:45:00.487Z,58.83
2022-08-03T15:49:57.301Z,52.10
2022-08-03T15:52:25.714Z,49.75
2022-08-03T15:54:54.123Z,46.28
2022-08-03T15:57:23.469Z,48.28
2022-08-03T15:59:51.955Z,45.20
2022-08-03T16:02:21.610Z,42.20
2022-08-03T16:04:49.951Z,41.13
2022-08-03T16:07:38.318Z,41.67
2022-08-03T16:10:07.819Z,37.75
2022-08-03T16:12:36.156Z,36.58
2022-08-03T16:15:04.794Z,34.10
2022-08-03T16:17:34.902Z,36.13
2022-08-03T16:20:07.493Z,49.40
2022-08-03T16:22:44.495Z,35.28
2022-08-03T16:25:18.510Z,34.45
2022-08-03T16:28:07.058Z,34.45
2022-08-03T16:30:35.840Z,34.92
2022-08-03T16:33:05.754Z,33.95
2022-08-03T16:35:34.203Z,29.50
2022-08-03T16:38:06.526Z,26.70
2022-08-03T16:40:37.925Z,28.42
2022-08-03T16:43:18.178Z,42.63
2022-08-03T16:45:47.575Z,34.83
2022-08-03T16:48:17.527Z,28.02
2022-08-03T16:50:46.440Z,28.45
2022-08-03T16:53:15.598Z,35.95
2022-08-03T16:55:53.211Z,31.40
2022-08-03T16:58:34.432Z,30.65
2022-08-03T17:01:23.488Z,24.85
2022-08-03T17:04:01.698Z,36.85
2022-08-03T17:06:34.230Z,39.53
2022-08-03T17:09:09.119Z,28.40
2022-08-03T17:11:44.113Z,35.88
2022-08-03T17:14:17.165Z,22.23
2022-08-03T17:16:52.414Z,23.20
2022-08-03T17:19:24.986Z,17.95
2022-08-03T17:22:04.017Z,23.92
2022-08-03T17:24:35.802Z,22.33
2022-08-03T17:28:42.241Z,22.88
2022-08-03T17:30:08.491Z,13.70
2022-08-03T17:32:42.792Z,18.02
2022-08-03T17:35:22.773Z,21.38
2022-08-03T17:38:02.647Z,15.63
2022-08-03T17:40:32.690Z,16.55
2022-08-03T17:44:12.831Z,15.25
2022-08-03T17:45:52.778Z,10.82
2022-08-03T17:48:25.230Z,8.43
2022-08-03T17:53:33.518Z,11.40
2022-08-03T17:56:44.414Z,12.77
2022-08-03T17:59:11.548Z,7.20
2022-08-03T18:02:12.294Z,5.57
2022-08-03T18:04:55.530Z,3.15
2022-08-03T18:07:41.171Z,3.00
2022-08-03T18:10:15.402Z,2.63
2022-08-03T18:12:53.569Z,2.97
2022-08-03T18:15:30.422Z,4.40
2022-08-03T18:18:10.481Z,5.10
2022-08-03T18:20:42.404Z,8.32
2022-08-03T18:23:24.801Z,14.48
2022-08-03T18:26:07.139Z,42.35
2022-08-03T18:28:39.408Z,34.97
2022-08-03T18:31:12.758Z,22.37
2022-08-03T18:34:17.079Z,18.45
2022-08-03T18:36:55.847Z,17.50
2022-08-03T18:39:26.436Z,9.90
2022-08-03T18:41:54.783Z,9.55
2022-08-03T18:44:53.276Z,11.23
2022-08-03T18:47:50.617Z,6.03
2022-08-03T18:50:31.209Z,9.52
2022-08-03T18:53:16.460Z,12.00
2022-08-03T18:56:01.940Z,12.02
2022-08-03T18:58:40.759Z,5.18
2022-08-03T19:01:57.908Z,7.65
2022-08-03T19:04:13.524Z,11.93
2022-08-03T19:06:45.879Z,17.90
2022-08-03T19:09:27.987Z,16.08
2022-08-03T19:12:12.796Z,12.68
2022-08-03T19:14:54.901Z,24.02
2022-08-03T19:17:29.466Z,110.18
2022-08-03T19:20:01.610Z,70.78
2022-08-03T19:22:30.289Z,29.48
2022-08-03T19:25:02.426Z,17.65
2022-08-03T19:27:33.324Z,22.98
2022-08-03T19:30:19.978Z,11.00
2022-08-03T19:32:54.971Z,22.15
2022-08-03T19:35:51.755Z,18.47
2022-08-03T19:38:12.952Z,13.65
2022-08-03T19:40:50.963Z,10.57
2022-08-03T19:43:25.933Z,13.70
2022-08-03T19:46:06.938Z,9.35
2022-08-03T19:48:37.018Z,18.35
2022-08-03T19:51:12.209Z,16.60
2022-08-03T19:53:44.992Z,12.32
2022-08-03T19:56:14.376Z,13.60
2022-08-03T19:58:45.841Z,10.85
2022-08-03T20:01:21.780Z,15.23
2022-08-03T20:03:51.586Z,13.57
2022-08-03T20:06:23.638Z,10.13
2022-08-03T20:08:52.816Z,10.93
2022-08-03T20:11:28.878Z,11.93
2022-08-03T20:13:59.691Z,24.25
2022-08-03T20:18:56.298Z,12.23
2022-08-03T20:21:26.159Z,13.35
2022-08-03T20:24:01.978Z,9.50
2022-08-03T20:26:33.604Z,11.90
2022-08-03T20:29:10.092Z,11.10
2022-08-03T20:31:38.689Z,10.60
2022-08-03T20:34:07.626Z,10.30
2022-08-03T20:36:38.193Z,10.13
2022-08-03T20:39:07.711Z,10.55
2022-08-03T20:41:36.863Z,9.90
2022-08-03T20:44:07.989Z,9.75
2022-08-03T20:46:50.231Z,8.45
2022-08-03T20:49:25.038Z,9.10
2022-08-03T20:51:55.076Z,7.53
2022-08-03T20:54:29.402Z,7.72
2022-08-03T20:57:03.755Z,9.30
2022-08-03T20:59:50.641Z,7.85
2022-08-03T21:02:28.912Z,7.00
2022-08-03T21:05:03.424Z,9.15
2022-08-03T21:08:04.301Z,7.43
2022-08-03T21:10:32.010Z,7.65
2022-08-03T21:13:16.201Z,7.47
2022-08-03T21:16:12.835Z,7.65
2022-08-03T21:18:45.895Z,7.32
2022-08-03T21:21:17.004Z,5.97
2022-08-03T21:23:48.774Z,4.10
2022-08-03T21:26:19.696Z,5.63
2022-08-03T21:28:49.481Z,7.40
2022-08-03T21:31:24.847Z,7.32
2022-08-03T21:33:56.629Z,7.35
2022-08-03T21:38:56.160Z,6.82
2022-08-03T21:41:26.170Z,7.00
2022-08-03T21:43:54.724Z,6.85
2022-08-03T21:46:25.195Z,6.75
2022-08-03T21:50:07.321Z,6.70
2022-08-03T21:51:50.555Z,6.72
2022-08-03T21:54:21.544Z,6.20
2022-08-03T21:56:52.768Z,6.45
2022-08-03T21:59:23.234Z,6.55
2022-08-03T22:01:55.377Z,4.60
2022-08-03T22:04:53.366Z,4.65
2022-08-03T22:07:16.380Z,5.47
2022-08-03T22:09:50.092Z,6.05
2022-08-03T22:12:23.358Z,6.65
2022-08-03T22:14:53.599Z,5.32
2022-08-03T22:17:53.646Z,4.15
2022-08-03T22:20:21.918Z,5.10
2022-08-03T22:22:56.468Z,5.45
2022-08-03T22:25:29.963Z,4.93
2022-08-03T22:28:00.188Z,3.28
2022-08-03T22:30:29.096Z,3.95
2022-08-03T22:32:59.147Z,2.60
2022-08-03T22:35:28.566Z,3.28
2022-08-03T22:38:00.030Z,4.90
2022-08-03T22:40:29.188Z,5.03
2022-08-03T22:42:58.950Z,5.55
2022-08-03T22:46:06.817Z,5.38
2022-08-03T22:48:18.241Z,4.45
2022-08-03T22:50:47.292Z,4.32
2022-08-03T22:53:19.538Z,5.72
2022-08-03T22:55:49.824Z,4.43
2022-08-03T22:58:18.430Z,3.90
2022-08-03T23:00:53.748Z,4.68
2022-08-03T23:03:58.721Z,4.80
2022-08-03T23:06:20.657Z,4.70
2022-08-03T23:08:51.051Z,4.32
2022-08-03T23:11:20.399Z,4.93
2022-08-03T23:13:51.098Z,4.47
2022-08-03T23:16:28.554Z,4.35
2022-08-03T23:19:16.736Z,4.53
2022-08-03T23:24:32.162Z,3.75
2022-08-03T23:27:00.819Z,4.20
2022-08-03T23:29:31.573Z,4.10
2022-08-03T23:34:49.743Z,3.42
2022-08-03T23:37:20.006Z,3.33
2022-08-03T23:39:50.311Z,4.03
2022-08-03T23:42:20.598Z,3.58
2022-08-03T23:44:54.663Z,3.13
2022-08-03T23:47:23.602Z,2.95
2022-08-03T23:49:53.585Z,3.03
2022-08-03T23:52:33.985Z,3.03
2022-08-03T23:55:18.229Z,3.03
2022-08-03T23:58:02.743Z,3.53
